createdAt,value
2022-09-13T00:00:09.956Z,3.10
2022-09-13T00:02:39.065Z,2.10
2022-09-13T00:05:07.849Z,3.90
2022-09-13T00:07:35.612Z,2.33
2022-09-13T00:10:03.368Z,2.03
2022-09-13T00:12:31.244Z,1.50
2022-09-13T00:14:58.977Z,1.60
2022-09-13T00:17:27.691Z,3.20
2022-09-13T00:19:56.784Z,4.10
2022-09-13T00:22:24.560Z,4.43
2022-09-13T00:24:52.297Z,1.97
2022-09-13T00:27:20.581Z,2.20
2022-09-13T00:29:48.344Z,1.73
2022-09-13T00:32:16.182Z,5.50
2022-09-13T00:34:44.017Z,5.53
2022-09-13T00:37:13.142Z,5.00
2022-09-13T00:39:40.975Z,2.77
2022-09-13T00:42:11.320Z,1.90
2022-09-13T00:44:58.545Z,2.30
2022-09-13T00:47:35.439Z,2.67
2022-09-13T00:50:10.613Z,2.33
2022-09-13T00:52:46.097Z,9.63
2022-09-13T00:55:18.788Z,3.63
2022-09-13T00:57:46.649Z,4.00
2022-09-13T01:00:18.021Z,1.80
2022-09-13T01:02:50.627Z,1.70
2022-09-13T01:05:21.944Z,2.47
2022-09-13T01:07:51.756Z,4.70
2022-09-13T01:10:19.721Z,3.80
2022-09-13T01:12:54.234Z,2.93
2022-09-13T01:15:22.270Z,8.70
2022-09-13T01:17:51.604Z,2.83
2022-09-13T01:20:19.400Z,4.27
2022-09-13T01:23:26.678Z,4.30
2022-09-13T01:26:30.051Z,2.40
2022-09-13T01:29:18.836Z,3.07
2022-09-13T01:31:53.472Z,2.63
2022-09-13T01:34:31.630Z,1.80
2022-09-13T01:37:16.767Z,3.23
2022-09-13T01:39:59.721Z,2.10
2022-09-13T01:42:35.537Z,2.33
2022-09-13T01:45:19.058Z,2.77
2022-09-13T01:47:53.294Z,2.27
2022-09-13T01:50:26.972Z,4.00
2022-09-13T01:52:58.051Z,2.33
2022-09-13T01:55:35.596Z,1.90
2022-09-13T01:58:10.779Z,2.73
2022-09-13T02:00:45.589Z,3.30
2022-09-13T02:03:18.347Z,2.87
2022-09-13T02:05:51.148Z,2.00
2022-09-13T02:08:23.064Z,2.57
2022-09-13T02:10:55.811Z,1.88
2022-09-13T02:13:29.330Z,2.10
2022-09-13T02:16:02.168Z,1.90
2022-09-13T02:18:35.826Z,1.87
2022-09-13T02:21:10.253Z,2.57
2022-09-13T02:23:42.784Z,5.00
2022-09-13T02:26:14.672Z,4.63
2022-09-13T02:28:48.330Z,1.83
2022-09-13T02:31:21.521Z,2.20
2022-09-13T02:33:55.104Z,2.30
2022-09-13T02:36:27.393Z,1.90
2022-09-13T02:38:59.684Z,2.73
2022-09-13T02:41:36.217Z,3.20
2022-09-13T02:44:08.891Z,2.27
2022-09-13T02:46:48.281Z,3.50
2022-09-13T02:49:29.355Z,2.50
2022-09-13T02:52:03.131Z,2.03
2022-09-13T02:54:38.008Z,2.23
2022-09-13T02:57:10.891Z,2.00
2022-09-13T02:59:38.801Z,5.57
2022-09-13T03:02:09.421Z,3.00
2022-09-13T03:04:38.656Z,4.40
2022-09-13T03:07:10.551Z,3.30
2022-09-13T03:09:42.209Z,1.77
2022-09-13T03:12:40.888Z,3.07
2022-09-13T03:15:18.114Z,4.67
2022-09-13T03:17:55.460Z,2.70
2022-09-13T03:20:36.995Z,3.40
2022-09-13T03:23:40.014Z,3.23
2022-09-13T03:26:24.667Z,3.30
2022-09-13T03:29:06.065Z,3.20
2022-09-13T03:31:37.151Z,2.30
2022-09-13T03:34:10.751Z,2.67
2022-09-13T03:36:46.603Z,2.20
2022-09-13T03:39:23.689Z,2.20
2022-09-13T03:41:55.868Z,4.30
2022-09-13T03:44:26.325Z,2.63
2022-09-13T03:46:58.488Z,2.07
2022-09-13T03:49:28.640Z,5.40
2022-09-13T03:51:58.132Z,2.30
2022-09-13T03:54:28.876Z,1.90
2022-09-13T03:57:11.372Z,4.23
2022-09-13T03:59:42.624Z,5.20
2022-09-13T04:02:12.046Z,5.13
2022-09-13T04:04:40.692Z,3.17
2022-09-13T04:07:11.292Z,2.57
2022-09-13T04:09:39.279Z,7.07
2022-09-13T04:12:08.327Z,4.57
2022-09-13T04:14:36.073Z,10.13
2022-09-13T04:17:03.864Z,2.23
2022-09-13T04:19:31.775Z,2.77
2022-09-13T04:21:59.823Z,2.83
2022-09-13T04:24:31.146Z,1.93
2022-09-13T04:27:00.039Z,6.03
2022-09-13T04:29:28.859Z,4.33
2022-09-13T04:31:56.950Z,2.13
2022-09-13T04:34:24.871Z,2.60
2022-09-13T04:36:54.576Z,4.57
2022-09-13T04:39:23.674Z,3.40
2022-09-13T04:41:54.799Z,2.90
2022-09-13T04:44:23.086Z,2.40
2022-09-13T04:46:50.948Z,3.87
2022-09-13T04:49:20.293Z,4.10
2022-09-13T04:51:48.332Z,3.93
2022-09-13T04:54:16.636Z,2.60
2022-09-13T04:56:44.554Z,3.13
2022-09-13T04:59:14.392Z,2.17
2022-09-13T05:01:42.637Z,2.43
2022-09-13T05:04:11.256Z,3.13
2022-09-13T05:06:39.220Z,2.33
2022-09-13T05:09:07.532Z,3.13
2022-09-13T05:11:35.448Z,4.00
2022-09-13T05:14:04.020Z,3.07
2022-09-13T05:16:34.329Z,2.90
2022-09-13T05:19:02.978Z,2.30
2022-09-13T05:21:31.864Z,3.13
2022-09-13T05:24:00.207Z,4.00
2022-09-13T05:26:30.942Z,4.07
2022-09-13T05:28:59.251Z,4.13
2022-09-13T05:31:29.233Z,3.67
2022-09-13T05:34:00.605Z,4.43
2022-09-13T05:36:28.861Z,3.47
2022-09-13T05:39:18.759Z,2.90
2022-09-13T05:41:45.801Z,4.10
2022-09-13T05:44:14.049Z,4.43
2022-09-13T05:46:42.711Z,5.33
2022-09-13T05:49:13.556Z,3.93
2022-09-13T05:51:41.358Z,5.00
2022-09-13T05:54:12.257Z,5.13
2022-09-13T05:56:40.374Z,4.00
2022-09-13T05:59:08.937Z,4.20
2022-09-13T06:01:36.799Z,3.47
2022-09-13T06:04:04.902Z,4.40
2022-09-13T06:06:35.143Z,4.40
2022-09-13T06:09:03.421Z,3.27
2022-09-13T06:11:31.186Z,4.27
2022-09-13T06:13:58.940Z,4.00
2022-09-13T06:16:26.901Z,10.07
2022-09-13T06:18:55.009Z,9.13
2022-09-13T06:21:28.433Z,7.77
2022-09-13T06:23:58.705Z,3.43
2022-09-13T06:26:28.298Z,4.10
2022-09-13T06:28:58.164Z,5.10
2022-09-13T06:31:28.665Z,9.73
2022-09-13T06:33:58.606Z,4.40
2022-09-13T06:36:26.579Z,5.87
2022-09-13T06:38:54.412Z,4.30
2022-09-13T06:41:26.275Z,4.03
2022-09-13T06:43:55.625Z,6.03
2022-09-13T06:46:25.304Z,7.27
2022-09-13T06:48:53.969Z,3.50
2022-09-13T06:51:24.754Z,5.47
2022-09-13T06:53:56.485Z,4.33
2022-09-13T06:56:27.240Z,5.13
2022-09-13T06:58:57.670Z,6.67
2022-09-13T07:01:27.557Z,4.40
2022-09-13T07:03:58.744Z,2.90
2022-09-13T07:06:28.025Z,3.50
2022-09-13T07:08:57.247Z,4.90
2022-09-13T07:11:27.862Z,3.30
2022-09-13T07:13:57.351Z,3.13
2022-09-13T07:16:26.947Z,4.20
2022-09-13T07:18:55.855Z,6.03
2022-09-13T07:21:24.635Z,4.07
2022-09-13T07:23:54.010Z,4.23
2022-09-13T07:26:21.995Z,4.70
2022-09-13T07:28:54.046Z,6.80
2022-09-13T07:31:23.362Z,2.97
2022-09-13T07:33:55.425Z,3.40
2022-09-13T07:36:23.398Z,3.53
2022-09-13T07:38:51.376Z,5.20
2022-09-13T07:41:20.643Z,6.80
2022-09-13T07:43:49.416Z,8.63
2022-09-13T07:46:21.190Z,5.83
2022-09-13T07:48:50.073Z,5.10
2022-09-13T07:51:20.038Z,4.90
2022-09-13T07:53:52.573Z,4.50
2022-09-13T07:56:26.312Z,3.80
2022-09-13T07:58:54.995Z,3.47
2022-09-13T08:01:26.808Z,4.90
2022-09-13T08:03:56.427Z,3.40
2022-09-13T08:06:24.986Z,3.70
2022-09-13T08:08:53.137Z,3.90
2022-09-13T08:11:22.867Z,9.30
2022-09-13T08:13:52.906Z,5.33
2022-09-13T08:16:22.764Z,5.40
2022-09-13T08:18:54.498Z,6.10
2022-09-13T08:21:22.643Z,5.63
2022-09-13T08:23:50.739Z,4.70
2022-09-13T08:26:18.697Z,5.00
2022-09-13T08:28:46.474Z,2.77
2022-09-13T08:31:17.860Z,5.30
2022-09-13T08:33:47.050Z,5.73
2022-09-13T08:36:17.192Z,4.60
2022-09-13T08:38:47.334Z,3.40
2022-09-13T08:41:45.004Z,5.33
2022-09-13T08:44:19.520Z,3.27
2022-09-13T08:46:47.948Z,2.70
2022-09-13T08:49:21.558Z,4.50
2022-09-13T08:51:54.087Z,3.57
2022-09-13T08:54:22.244Z,7.73
2022-09-13T08:56:58.222Z,4.27
2022-09-13T08:59:36.793Z,4.50
2022-09-13T09:02:17.803Z,3.20
2022-09-13T09:04:50.942Z,3.80
2022-09-13T09:07:23.398Z,8.90
2022-09-13T09:09:55.374Z,2.40
2022-09-13T09:12:34.308Z,4.43
2022-09-13T09:15:07.641Z,4.77
2022-09-13T09:17:46.102Z,2.90
2022-09-13T09:20:24.494Z,3.50
2022-09-13T09:22:55.252Z,8.13
2022-09-13T09:25:26.198Z,7.70
2022-09-13T09:27:54.761Z,6.90
2022-09-13T09:30:22.803Z,7.33
2022-09-13T09:33:14.496Z,5.33
2022-09-13T09:35:55.214Z,6.60
2022-09-13T09:38:41.347Z,4.07
2022-09-13T09:41:16.269Z,3.37
2022-09-13T09:43:52.502Z,4.53
2022-09-13T09:46:27.184Z,4.40
2022-09-13T09:48:58.056Z,3.80
2022-09-13T09:51:29.006Z,3.37
2022-09-13T09:54:05.170Z,6.03
2022-09-13T09:56:36.280Z,7.03
2022-09-13T09:59:04.416Z,3.07
2022-09-13T10:01:33.919Z,3.33
2022-09-13T10:04:09.357Z,6.73
2022-09-13T10:06:38.976Z,10.23
2022-09-13T10:09:19.665Z,8.20
2022-09-13T10:11:51.008Z,7.27
2022-09-13T10:14:36.923Z,10.13
2022-09-13T10:17:07.910Z,4.33
2022-09-13T10:19:36.340Z,3.60
2022-09-13T10:22:06.626Z,4.53
2022-09-13T10:24:35.816Z,5.10
2022-09-13T10:27:04.087Z,3.17
2022-09-13T10:29:33.306Z,3.73
2022-09-13T10:32:09.292Z,3.07
2022-09-13T10:34:38.515Z,4.30
2022-09-13T10:37:17.239Z,4.47
2022-09-13T10:39:56.976Z,8.33
2022-09-13T10:42:27.586Z,3.70
2022-09-13T10:44:57.745Z,5.13
2022-09-13T10:47:30.008Z,6.30
2022-09-13T10:49:59.593Z,4.17
2022-09-13T10:52:30.923Z,3.80
2022-09-13T10:55:24.988Z,3.33
2022-09-13T10:57:55.120Z,4.60
2022-09-13T11:00:25.622Z,4.17
2022-09-13T11:03:09.121Z,3.80
2022-09-13T11:05:45.025Z,3.10
2022-09-13T11:08:26.650Z,2.50
2022-09-13T11:11:05.536Z,2.27
2022-09-13T11:13:44.927Z,8.13
2022-09-13T11:16:27.018Z,2.23
2022-09-13T11:19:09.576Z,3.13
2022-09-13T11:21:49.358Z,2.80
2022-09-13T11:24:35.905Z,2.60
2022-09-13T11:27:12.649Z,6.70
2022-09-13T11:29:57.023Z,2.83
2022-09-13T11:32:38.222Z,3.37
2022-09-13T11:35:21.878Z,3.80
2022-09-13T11:37:59.271Z,2.87
2022-09-13T11:40:52.076Z,2.50
2022-09-13T11:43:45.418Z,4.73
2022-09-13T11:46:22.354Z,3.83
2022-09-13T11:49:25.871Z,3.30
2022-09-13T11:52:04.644Z,4.50
2022-09-13T11:54:43.771Z,3.30
2022-09-13T11:57:18.421Z,6.40
2022-09-13T11:59:53.876Z,5.50
2022-09-13T12:02:28.578Z,1.97
2022-09-13T12:05:21.140Z,6.97
2022-09-13T12:07:52.471Z,2.10
2022-09-13T12:10:25.992Z,3.70
2022-09-13T12:12:55.754Z,3.10
2022-09-13T12:15:33.916Z,3.13
2022-09-13T12:18:06.528Z,3.57
2022-09-13T12:20:38.864Z,2.53
2022-09-13T12:23:15.729Z,2.70
2022-09-13T12:25:49.994Z,2.03
2022-09-13T12:28:23.300Z,3.13
2022-09-13T12:30:57.754Z,3.80
2022-09-13T12:33:26.360Z,3.07
2022-09-13T12:36:28.608Z,4.00
2022-09-13T12:39:39.232Z,4.23
2022-09-13T12:42:26.625Z,2.97
2022-09-13T12:45:13.359Z,2.47
2022-09-13T12:48:01.799Z,2.40
2022-09-13T12:50:58.539Z,4.33
2022-09-13T12:53:43.490Z,2.60
2022-09-13T12:56:35.832Z,3.93
2022-09-13T12:59:27.886Z,3.57
2022-09-13T13:01:57.227Z,5.30
2022-09-13T13:04:29.863Z,3.13
2022-09-13T13:07:00.450Z,2.60
2022-09-13T13:09:41.051Z,3.67
2022-09-13T13:12:09.957Z,2.40
2022-09-13T13:14:53.538Z,5.17
2022-09-13T13:17:42.638Z,6.20
2022-09-13T13:21:04.823Z,3.83
2022-09-13T13:23:35.130Z,3.27
2022-09-13T13:26:13.459Z,2.60
2022-09-13T13:29:14.131Z,16.67
2022-09-13T13:31:46.814Z,5.10
2022-09-13T13:34:41.631Z,2.80
2022-09-13T13:40:29.104Z,3.43
2022-09-13T13:43:16.850Z,2.17
2022-09-13T13:45:59.396Z,2.40
2022-09-13T13:48:39.044Z,3.00
2022-09-13T13:51:18.545Z,2.63
2022-09-13T13:53:51.532Z,3.30
2022-09-13T13:56:26.491Z,2.70
2022-09-13T13:58:59.785Z,3.77
2022-09-13T14:01:30.922Z,3.10
2022-09-13T14:04:33.648Z,5.50
2022-09-13T14:07:19.445Z,4.87
2022-09-13T14:09:56.353Z,2.40
2022-09-13T14:12:40.389Z,3.93
2022-09-13T14:15:23.374Z,2.50
2022-09-13T14:18:19.990Z,2.77
2022-09-13T14:21:04.810Z,7.13
2022-09-13T14:23:33.330Z,3.27
2022-09-13T14:26:02.654Z,4.07
2022-09-13T14:28:33.582Z,2.63
2022-09-13T14:31:01.415Z,2.60
2022-09-13T14:33:34.959Z,3.10
2022-09-13T14:36:06.162Z,4.83
2022-09-13T14:38:36.362Z,2.30
2022-09-13T14:41:16.205Z,2.80
2022-09-13T14:43:46.884Z,3.50
2022-09-13T14:46:21.014Z,2.90
2022-09-13T14:48:51.932Z,3.83
2022-09-13T14:51:25.294Z,3.80
2022-09-13T14:53:58.487Z,3.97
2022-09-13T14:56:36.977Z,5.43
2022-09-13T14:59:13.958Z,3.00
2022-09-13T15:01:41.774Z,4.90
2022-09-13T15:04:10.063Z,3.50
2022-09-13T15:06:41.125Z,3.07
2022-09-13T15:09:24.326Z,5.60
2022-09-13T15:12:01.022Z,4.80
2022-09-13T15:14:32.180Z,3.00
2022-09-13T15:17:07.553Z,3.23
2022-09-13T15:19:41.492Z,5.10
2022-09-13T15:22:21.203Z,6.10
2022-09-13T15:24:51.674Z,4.43
2022-09-13T15:27:26.105Z,4.03
2022-09-13T15:29:58.076Z,4.07
2022-09-13T15:32:34.283Z,5.70
2022-09-13T15:35:03.503Z,3.90
2022-09-13T15:37:35.012Z,5.63
2022-09-13T15:40:16.241Z,4.70
2022-09-13T15:42:47.680Z,3.97
2022-09-13T15:45:17.337Z,4.33
2022-09-13T15:47:47.684Z,3.13
2022-09-13T15:50:22.388Z,3.50
2022-09-13T15:52:50.283Z,4.97
2022-09-13T15:55:18.080Z,5.97
2022-09-13T15:57:46.817Z,4.07
2022-09-13T16:00:22.379Z,4.33
2022-09-13T16:02:50.538Z,3.73
2022-09-13T16:05:19.306Z,3.40
2022-09-13T16:07:47.308Z,4.77
2022-09-13T16:10:16.814Z,3.60
2022-09-13T16:12:44.800Z,4.57
2022-09-13T16:15:13.693Z,6.40
2022-09-13T16:17:43.251Z,31.30
2022-09-13T16:20:14.320Z,36.10
2022-09-13T16:22:42.407Z,42.07
2022-09-13T16:25:12.975Z,31.00
2022-09-13T16:27:41.151Z,24.37
2022-09-13T16:30:11.367Z,12.97
2022-09-13T16:32:39.142Z,13.83
2022-09-13T16:35:09.811Z,13.70
2022-09-13T16:37:37.653Z,7.87
2022-09-13T16:40:06.454Z,10.90
2022-09-13T16:42:35.118Z,5.97
2022-09-13T16:45:02.928Z,9.73
2022-09-13T16:47:31.135Z,5.87
2022-09-13T16:49:58.948Z,5.70
2022-09-13T16:52:28.912Z,6.23
2022-09-13T16:54:57.066Z,6.40
2022-09-13T16:57:25.836Z,4.90
2022-09-13T16:59:54.168Z,4.90
2022-09-13T17:02:22.482Z,5.70
2022-09-13T17:04:50.330Z,9.73
2022-09-13T17:07:18.191Z,9.57
2022-09-13T17:09:47.368Z,8.83
2022-09-13T17:12:15.443Z,7.83
2022-09-13T17:14:47.178Z,6.60
2022-09-13T17:17:16.948Z,8.00
2022-09-13T17:19:45.569Z,5.13
2022-09-13T17:22:13.627Z,10.20
2022-09-13T17:24:41.596Z,6.00
2022-09-13T17:27:10.734Z,5.07
2022-09-13T17:29:38.701Z,5.40
2022-09-13T17:32:07.141Z,5.33
2022-09-13T17:34:35.036Z,5.17
2022-09-13T17:37:03.841Z,3.70
2022-09-13T17:39:31.871Z,3.63
2022-09-13T17:41:59.745Z,3.73
2022-09-13T17:44:28.848Z,8.03
2022-09-13T17:46:56.655Z,7.70
2022-09-13T17:49:24.438Z,6.60
2022-09-13T17:51:52.191Z,7.20
2022-09-13T17:54:20.075Z,7.43
2022-09-13T17:56:47.828Z,8.83
2022-09-13T17:59:18.174Z,4.23
2022-09-13T18:01:49.197Z,4.70
2022-09-13T18:04:18.758Z,4.23
2022-09-13T18:06:46.563Z,4.90
2022-09-13T18:09:15.628Z,5.73
2022-09-13T18:11:43.456Z,5.17
2022-09-13T18:14:14.277Z,5.37
2022-09-13T18:16:42.879Z,5.60
2022-09-13T18:19:12.713Z,4.50
2022-09-13T18:21:40.928Z,4.07
2022-09-13T18:24:08.888Z,3.67
2022-09-13T18:26:37.030Z,9.23
2022-09-13T18:29:08.530Z,5.80
2022-09-13T18:31:37.307Z,4.93
2022-09-13T18:34:06.565Z,5.47
2022-09-13T18:36:36.507Z,4.83
2022-09-13T18:39:05.401Z,4.00
2022-09-13T18:41:35.369Z,4.90
2022-09-13T18:44:04.903Z,4.17
2022-09-13T18:46:34.369Z,5.80
2022-09-13T18:49:03.198Z,7.67
2022-09-13T18:51:32.862Z,5.33
2022-09-13T18:54:02.829Z,6.07
2022-09-13T18:56:32.685Z,10.80
2022-09-13T18:59:02.114Z,4.60
2022-09-13T19:01:32.093Z,3.87
2022-09-13T19:04:01.698Z,3.60
2022-09-13T19:06:31.477Z,4.47
2022-09-13T19:09:02.073Z,4.17
2022-09-13T19:11:49.663Z,4.63
2022-09-13T19:14:18.920Z,6.47
2022-09-13T19:16:46.992Z,4.33
2022-09-13T19:19:15.305Z,5.27
2022-09-13T19:21:43.834Z,5.33
2022-09-13T19:24:18.126Z,6.27
2022-09-13T19:26:48.517Z,3.47
2022-09-13T19:29:19.638Z,4.63
2022-09-13T19:31:49.376Z,10.23
2022-09-13T19:34:18.063Z,4.97
2022-09-13T19:36:45.987Z,5.40
2022-09-13T19:39:15.296Z,8.50
2022-09-13T19:41:43.146Z,5.10
2022-09-13T19:44:13.221Z,3.93
2022-09-13T19:46:42.113Z,5.13
2022-09-13T19:49:13.897Z,4.93
2022-09-13T19:51:45.544Z,7.43
2022-09-13T19:54:18.763Z,3.80
2022-09-13T19:56:46.943Z,4.23
2022-09-13T19:59:16.812Z,4.40
2022-09-13T20:01:46.109Z,4.60
2022-09-13T20:04:17.035Z,6.20
2022-09-13T20:06:46.696Z,4.20
2022-09-13T20:09:18.033Z,8.87
2022-09-13T20:11:47.322Z,3.47
2022-09-13T20:14:17.480Z,4.73
2022-09-13T20:16:45.568Z,4.00
2022-09-13T20:22:07.629Z,5.40
2022-09-13T20:24:36.804Z,4.57
2022-09-13T20:27:04.821Z,5.10
2022-09-13T20:29:32.639Z,3.37
2022-09-13T20:32:02.134Z,4.10
2022-09-13T20:34:30.000Z,3.70
2022-09-13T20:36:57.768Z,4.53
2022-09-13T20:39:25.599Z,6.97
2022-09-13T20:41:54.778Z,4.73
2022-09-13T20:44:22.606Z,2.93
2022-09-13T20:46:50.370Z,8.10
2022-09-13T20:49:18.144Z,6.00
2022-09-13T20:51:46.586Z,11.00
2022-09-13T20:54:14.444Z,3.77
2022-09-13T20:56:42.213Z,4.50
2022-09-13T20:59:11.396Z,3.40
2022-09-13T21:01:39.913Z,3.20
2022-09-13T21:04:07.752Z,6.07
2022-09-13T21:06:39.714Z,4.30
2022-09-13T21:09:06.541Z,4.70
2022-09-13T21:11:35.992Z,6.63
2022-09-13T21:14:05.972Z,5.37
2022-09-13T21:16:36.849Z,7.53
2022-09-13T21:19:05.012Z,3.67
2022-09-13T21:21:34.571Z,3.83
2022-09-13T21:24:04.376Z,8.37
2022-09-13T21:26:33.315Z,5.63
2022-09-13T21:29:01.304Z,5.17
2022-09-13T21:31:31.169Z,8.63
2022-09-13T21:34:02.362Z,5.47
2022-09-13T21:36:30.899Z,4.10
2022-09-13T21:38:59.394Z,4.83
2022-09-13T21:41:28.488Z,4.97
2022-09-13T21:43:56.727Z,3.70
2022-09-13T21:46:26.500Z,3.60
2022-09-13T21:48:56.969Z,3.90
2022-09-13T21:51:28.100Z,4.67
2022-09-13T21:53:58.994Z,3.40
2022-09-13T21:56:29.613Z,4.33
2022-09-13T21:58:59.208Z,6.03
2022-09-13T22:01:28.639Z,4.93
2022-09-13T22:03:56.754Z,5.33
2022-09-13T22:06:30.162Z,4.27
2022-09-13T22:09:02.166Z,5.27
2022-09-13T22:11:32.592Z,5.43
2022-09-13T22:14:02.349Z,3.20
2022-09-13T22:16:31.940Z,5.90
2022-09-13T22:19:05.456Z,3.67
2022-09-13T22:21:39.916Z,5.20
2022-09-13T22:24:08.737Z,4.23
2022-09-13T22:26:39.445Z,5.07
2022-09-13T22:29:08.155Z,3.87
2022-09-13T22:31:37.994Z,5.27
2022-09-13T22:34:06.601Z,5.87
2022-09-13T22:36:34.858Z,6.63
2022-09-13T22:39:04.033Z,5.53
2022-09-13T22:41:33.551Z,12.53
2022-09-13T22:44:03.088Z,6.10
2022-09-13T22:46:33.596Z,16.13
2022-09-13T22:49:02.177Z,6.50
2022-09-13T22:51:30.725Z,5.07
2022-09-13T22:54:01.368Z,9.20
2022-09-13T22:56:35.540Z,4.17
2022-09-13T22:59:06.130Z,6.00
2022-09-13T23:01:34.398Z,3.37
2022-09-13T23:04:02.948Z,4.03
2022-09-13T23:06:31.354Z,4.90
2022-09-13T23:09:01.211Z,3.90
2022-09-13T23:11:32.018Z,5.87
2022-09-13T23:14:03.772Z,4.80
2022-09-13T23:16:33.652Z,4.00
2022-09-13T23:19:01.537Z,3.10
2022-09-13T23:21:32.281Z,3.10
2022-09-13T23:24:00.507Z,4.53
2022-09-13T23:26:29.246Z,5.07
2022-09-13T23:28:59.753Z,3.53
2022-09-13T23:31:31.016Z,3.40
2022-09-13T23:34:01.549Z,5.20
2022-09-13T23:36:33.126Z,3.83
2022-09-13T23:39:02.924Z,5.63
2022-09-13T23:41:31.769Z,5.53
2022-09-13T23:43:59.855Z,3.67
2022-09-13T23:46:29.339Z,7.10
2022-09-13T23:48:57.385Z,3.50
2022-09-13T23:51:27.037Z,4.80
2022-09-13T23:53:57.313Z,4.17
2022-09-13T23:56:25.909Z,9.73
2022-09-13T23:58:53.780Z,3.87
